Time;durP1;ratioP1;P1;durP2;ratioP2;P2;SDS_P1;SDS_P2;PMS_P1;PMS_P2;Temp;Humidity;BMP_temperature;BMP_pressure;BME280_temperature;BME280_humidity;BME280_pressure;Samples;Min_cycle;Max_cycle;Signal;HPM_P1;HPM_P2
2021/11/10 00:02:17;;;;;;;25.85;14.77;;;;;;;18.57;79.20;101989.88;5010768;28;20039;-76
2021/11/10 00:04:45;;;;;;;24.05;14.23;;;;;;;18.51;79.29;101988.91;4988619;28;20046;-75
2021/11/10 00:07:13;;;;;;;24.67;13.15;;;;;;;18.48;79.18;101997.81;4989874;28;20039;-76
2021/11/10 00:09:41;;;;;;;30.38;13.60;;;;;;;18.44;79.16;101989.78;4990759;28;20494;-76
2021/11/10 00:12:09;;;;;;;24.05;13.43;;;;;;;18.42;78.78;101988.88;4972607;28;20129;-75
2021/11/10 00:14:37;;;;;;;24.92;14.50;;;;;;;18.36;78.80;101987.09;4990343;28;20034;-75
2021/11/10 00:17:07;;;;;;;28.02;14.05;;;;;;;18.39;78.64;101989.75;5004061;28;20049;-76
2021/11/10 00:19:34;;;;;;;26.92;14.02;;;;;;;18.45;78.61;101986.19;5004605;28;20528;-75
2021/11/10 00:22:02;;;;;;;25.77;14.18;;;;;;;18.48;78.34;101989.78;4989595;28;20082;-75
2021/11/10 00:24:30;;;;;;;28.23;14.45;;;;;;;18.50;78.57;101989.81;5008818;28;20096;-75
2021/11/10 00:26:57;;;;;;;27.48;13.15;;;;;;;18.51;78.70;101991.59;4994638;28;20109;-75
2021/11/10 00:29:25;;;;;;;27.17;13.65;;;;;;;18.52;78.64;101983.53;5004559;28;20132;-75
2021/11/10 00:31:53;;;;;;;30.45;13.77;;;;;;;18.56;79.01;101984.50;4993362;28;20038;-76
2021/11/10 00:34:22;;;;;;;34.55;14.52;;;;;;;18.61;79.19;101980.03;4990182;28;20049;-76
2021/11/10 00:36:50;;;;;;;26.33;13.82;;;;;;;18.65;79.24;101982.72;4988666;28;20134;-76
2021/11/10 00:39:18;;;;;;;28.30;12.30;;;;;;;18.70;79.16;101978.28;5002814;28;20524;-75
2021/11/10 00:41:46;;;;;;;28.20;13.95;;;;;;;18.75;79.08;101993.44;5011329;28;20103;-77
2021/11/10 00:44:14;;;;;;;29.90;13.75;;;;;;;18.77;78.75;101989.00;5004448;28;21546;-77
2021/11/10 00:46:41;;;;;;;22.60;12.82;;;;;;;18.78;78.38;101988.97;5009491;28;20042;-77
2021/11/10 00:49:09;;;;;;;28.67;14.23;;;;;;;18.81;78.23;101989.00;4999665;28;20104;-77
2021/11/10 00:51:38;;;;;;;27.77;13.30;;;;;;;18.84;77.97;101994.34;5009466;28;20096;-76
2021/11/10 00:54:06;;;;;;;25.67;13.43;;;;;;;18.85;77.87;102000.59;5009312;28;20429;-76
2021/11/10 00:56:33;;;;;;;26.45;13.50;;;;;;;18.87;77.97;102002.38;5011551;28;20046;-76
2021/11/10 00:59:01;;;;;;;24.17;14.18;;;;;;;18.88;77.92;102003.28;5011359;28;20070;-76
2021/11/10 01:01:29;;;;;;;27.70;14.65;;;;;;;18.86;77.63;102003.28;4993598;28;20038;-76
2021/11/10 01:03:56;;;;;;;28.25;14.20;;;;;;;18.84;77.60;102004.19;4999284;28;20498;-76
2021/11/10 01:06:24;;;;;;;25.30;13.15;;;;;;;18.80;77.32;102000.59;5009472;28;20046;-75
2021/11/10 01:08:54;;;;;;;28.67;13.30;;;;;;;18.79;77.11;102001.47;5012745;28;20038;-77
2021/11/10 01:11:22;;;;;;;23.02;12.73;;;;;;;18.75;77.01;102005.06;5006461;28;20046;-79
2021/11/10 01:13:51;;;;;;;26.63;12.73;;;;;;;18.60;76.99;102005.91;4982338;28;20038;-77
2021/11/10 01:16:18;;;;;;;28.08;13.20;;;;;;;18.68;76.31;102000.56;5011438;28;20648;-77
2021/11/10 01:18:46;;;;;;;25.67;13.32;;;;;;;18.65;75.98;101993.41;5010207;28;20427;-77
2021/11/10 01:21:16;;;;;;;25.10;12.20;;;;;;;18.62;75.87;101996.09;5003462;28;20060;-77
2021/11/10 01:23:44;;;;;;;24.40;10.25;;;;;;;18.60;75.55;102007.69;4997082;28;20069;-76
2021/11/10 01:26:13;;;;;;;23.10;11.55;;;;;;;18.57;75.09;102003.22;4997937;28;20044;-77
2021/11/10 01:28:42;;;;;;;29.08;12.55;;;;;;;18.55;74.86;102002.31;5007823;28;20109;-77
2021/11/10 01:31:11;;;;;;;26.10;12.13;;;;;;;18.55;74.82;102004.06;5002336;28;20042;-77
2021/11/10 01:33:39;;;;;;;26.05;12.73;;;;;;;18.53;74.49;101997.81;4991740;28;20050;-76
2021/11/10 01:36:09;;;;;;;24.15;11.68;;;;;;;18.51;74.36;102004.97;4991722;28;20073;-77
2021/11/10 01:38:37;;;;;;;25.35;12.45;;;;;;;18.50;74.26;102003.19;4998582;28;20133;-76
2021/11/10 01:41:05;;;;;;;26.48;12.02;;;;;;;18.48;74.22;101995.13;5010427;28;20038;-77
2021/11/10 01:43:39;;;;;;;23.38;11.93;;;;;;;18.48;73.93;101988.91;5011320;28;20413;-76
2021/11/10 01:46:07;;;;;;;27.60;12.68;;;;;;;18.45;73.94;101991.53;5007987;28;20129;-78
2021/11/10 01:48:37;;;;;;;27.90;12.60;;;;;;;18.42;74.03;101988.88;4996828;28;20062;-76
2021/11/10 01:51:07;;;;;;;24.45;12.13;;;;;;;18.40;73.97;101990.66;5010746;28;20053;-77
2021/11/10 01:53:36;;;;;;;24.38;12.95;;;;;;;18.39;73.98;101986.19;5007378;28;20034;-77
2021/11/10 01:56:06;;;;;;;24.20;12.27;;;;;;;18.36;74.12;101981.75;5001339;28;20049;-76
2021/11/10 01:58:33;;;;;;;27.58;13.05;;;;;;;18.36;74.13;101988.84;5004512;28;20038;-77
2021/11/10 02:01:03;;;;;;;24.73;13.02;;;;;;;18.34;74.24;101983.50;5008466;28;20041;-76
2021/11/10 02:03:30;;;;;;;24.45;14.27;;;;;;;18.32;74.43;101980.81;4999705;28;20045;-77
2021/11/10 02:06:04;;;;;;;24.77;13.70;;;;;;;18.30;74.50;101981.72;5010438;28;20048;-76
2021/11/10 02:09:01;;;;;;;28.00;13.68;;;;;;;18.30;74.49;101974.59;5001797;28;20045;-76
2021/11/10 02:11:34;;;;;;;27.90;12.80;;;;;;;18.31;74.79;101973.69;4998215;28;20052;-76
2021/11/10 02:14:07;;;;;;;;;;;;;;;18.32;74.95;101972.78;5002279;28;20406;-77
2021/11/10 02:16:40;;;;;;;24.08;12.52;;;;;;;18.35;74.98;101976.38;5002545;28;20420;-76
2021/11/10 02:19:14;;;;;;;22.92;13.30;;;;;;;18.39;75.07;101973.72;4991013;28;20049;-77
2021/11/10 02:21:48;;;;;;;27.55;13.25;;;;;;;18.45;75.06;101975.50;5006139;28;20092;-77
2021/11/10 02:24:17;;;;;;;24.25;12.90;;;;;;;18.47;75.44;101968.38;4998521;28;20045;-77
2021/11/10 02:26:46;;;;;;;27.65;12.90;;;;;;;18.47;75.57;101968.38;4998439;28;20112;-76
2021/11/10 02:29:15;;;;;;;26.13;12.35;;;;;;;18.47;75.72;101969.28;5009098;28;20531;-77
2021/11/10 02:31:44;;;;;;;28.60;16.13;;;;;;;18.48;75.86;101972.84;4994592;28;20549;-77
2021/11/10 02:34:13;;;;;;;22.27;12.90;;;;;;;18.48;75.80;101975.53;4996253;28;20133;-76
2021/11/10 02:36:41;;;;;;;31.23;14.48;;;;;;;18.45;75.77;101975.50;5005240;28;20042;-77
2021/11/10 02:39:12;;;;;;;25.95;14.13;;;;;;;18.42;75.59;101965.72;5000362;28;20049;-76
2021/11/10 02:41:40;;;;;;;39.28;16.45;;;;;;;18.39;75.52;101970.13;4990764;28;20089;-76
2021/11/10 02:44:11;;;;;;;24.40;13.07;;;;;;;18.37;75.37;101977.28;5003636;28;20042;-76
2021/11/10 02:46:39;;;;;;;26.27;13.68;;;;;;;18.32;75.12;101977.25;5010019;28;20041;-76
2021/11/10 02:49:07;;;;;;;24.65;12.90;;;;;;;18.29;75.18;101970.13;5000583;28;20108;-76
2021/11/10 02:51:34;;;;;;;26.65;14.38;;;;;;;18.29;75.06;101972.81;4996428;28;20048;-76
2021/11/10 02:54:03;;;;;;;25.30;13.30;;;;;;;18.28;75.01;101970.13;4991977;28;20093;-76
2021/11/10 02:56:32;;;;;;;24.42;12.70;;;;;;;18.26;74.98;101964.75;4992070;28;20145;-77
2021/11/10 02:59:00;;;;;;;31.77;14.90;;;;;;;18.24;74.78;101968.34;5002082;28;20038;-76
2021/11/10 03:01:30;;;;;;;24.92;12.68;;;;;;;18.23;74.89;101974.56;5007534;28;20053;-75
2021/11/10 03:03:59;;;;;;;26.10;13.48;;;;;;;18.21;74.95;101979.00;5003319;28;20103;-76
2021/11/10 03:06:27;;;;;;;26.75;13.52;;;;;;;18.21;74.95;101971.88;4992774;28;20107;-76
2021/11/10 03:08:54;;;;;;;24.90;13.27;;;;;;;18.19;75.08;101968.28;5009394;28;20049;-73
2021/11/10 03:11:22;;;;;;;29.50;14.02;;;;;;;18.18;75.09;101974.53;5003308;28;20046;-76
2021/11/10 03:13:54;;;;;;;27.92;14.93;;;;;;;18.19;75.34;101968.28;5008940;28;20137;-76
2021/11/10 03:16:22;;;;;;;30.05;13.35;;;;;;;18.19;75.21;101970.06;5004045;28;20038;-75
2021/11/10 03:18:50;;;;;;;28.75;14.00;;;;;;;18.19;75.42;101967.41;5009094;28;20501;-77
2021/11/10 03:21:23;;;;;;;29.88;14.05;;;;;;;18.13;75.47;101976.28;5006894;28;20096;-76
2021/11/10 03:23:52;;;;;;;26.80;14.65;;;;;;;18.15;75.59;101977.19;5010056;28;20124;-77
2021/11/10 03:26:22;;;;;;;22.52;11.60;;;;;;;18.16;75.77;101973.66;5008426;28;20108;-76
2021/11/10 03:28:51;;;;;;;32.83;14.88;;;;;;;18.11;75.87;101970.06;4995729;28;20120;-76
2021/11/10 03:31:22;;;;;;;26.92;14.65;;;;;;;18.13;75.97;101970.94;4994555;28;20037;-76
2021/11/10 03:33:50;;;;;;;31.13;14.85;;;;;;;18.12;76.16;101978.94;5009976;28;20092;-76
2021/11/10 03:36:19;;;;;;;29.45;15.52;;;;;;;18.18;76.36;101966.50;5008915;28;20045;-76
2021/11/10 03:38:47;;;;;;;30.27;14.55;;;;;;;18.22;76.59;101957.63;5006510;28;20049;-76
2021/11/10 03:41:19;;;;;;;30.38;14.27;;;;;;;18.28;76.59;101970.13;5008694;28;20040;-77
2021/11/10 03:43:51;;;;;;;33.40;13.93;;;;;;;18.32;76.62;101963.88;5000529;28;20709;-77
2021/11/10 03:46:20;;;;;;;33.80;15.30;;;;;;;18.32;76.85;101966.56;4993280;28;20042;-76
2021/11/10 03:48:49;;;;;;;32.53;14.10;;;;;;;18.36;76.78;101963.03;5007067;28;20117;-76
2021/11/10 03:51:18;;;;;;;34.22;14.60;;;;;;;18.35;76.68;101966.56;4998290;28;20042;-77
2021/11/10 03:53:47;;;;;;;32.33;15.48;;;;;;;18.37;76.64;101964.81;4986667;28;20038;-76
2021/11/10 03:56:17;;;;;;;33.20;15.10;;;;;;;18.35;76.55;101958.56;5008040;28;20125;-76
2021/11/10 03:58:45;;;;;;;29.42;13.23;;;;;;;18.36;76.60;101960.34;5005304;28;20042;-77
2021/11/10 04:01:17;;;;;;;31.35;14.27;;;;;;;18.35;76.45;101961.22;5005427;28;20038;-77
2021/11/10 04:03:49;;;;;;;32.75;13.77;;;;;;;18.36;76.57;101962.13;4992468;28;20374;-77
2021/11/10 04:06:17;;;;;;;32.00;15.18;;;;;;;18.35;76.54;101960.34;5001922;28;20065;-76
2021/11/10 04:08:45;;;;;;;30.83;14.27;;;;;;;18.35;76.53;101957.66;4999766;28;20417;-76
2021/11/10 04:11:15;;;;;;;29.95;14.13;;;;;;;18.36;76.74;101964.78;4988734;28;20050;-78
2021/11/10 04:13:43;;;;;;;35.47;15.77;;;;;;;18.36;76.61;101951.44;4995961;28;20038;-75
2021/11/10 04:16:11;;;;;;;29.83;14.65;;;;;;;18.35;76.71;101963.91;5007951;28;20045;-76
2021/11/10 04:18:39;;;;;;;34.25;14.25;;;;;;;18.32;76.75;101970.13;5002490;28;20045;-76
2021/11/10 04:21:16;;;;;;;33.38;14.95;;;;;;;18.38;76.71;101971.06;4990851;28;20121;-77
2021/11/10 04:23:45;;;;;;;36.47;15.52;;;;;;;18.32;77.04;101970.13;4994081;28;20030;-76
2021/11/10 04:26:19;;;;;;;39.97;16.08;;;;;;;18.32;77.15;101963.88;4989820;28;20046;-76
2021/11/10 04:28:46;;;;;;;43.65;16.48;;;;;;;18.31;77.10;101967.47;4989251;28;20544;-77
2021/11/10 04:31:15;;;;;;;38.00;16.15;;;;;;;18.32;77.19;101974.56;5001386;28;20075;-76
2021/11/10 04:33:44;;;;;;;34.65;16.27;;;;;;;18.29;77.00;101971.91;4994885;28;20117;-76
2021/11/10 04:36:16;;;;;;;24.15;13.73;;;;;;;18.28;77.04;101989.72;4999066;28;20050;-76
2021/11/10 04:38:48;;;;;;;28.50;13.93;;;;;;;18.27;76.94;101984.38;4999046;28;20042;-76
2021/11/10 04:41:16;;;;;;;36.15;15.77;;;;;;;18.27;76.84;101989.72;4990035;28;20109;-77
2021/11/10 04:43:46;;;;;;;32.42;14.85;;;;;;;18.14;76.88;101991.44;4994330;28;20049;-77
2021/11/10 04:46:19;;;;;;;30.67;14.00;;;;;;;18.20;76.87;101999.50;4998373;28;20502;-76
2021/11/10 04:48:48;;;;;;;31.58;14.60;;;;;;;18.18;76.80;101992.38;4993268;28;20038;-76
2021/11/10 04:51:20;;;;;;;31.60;14.15;;;;;;;18.18;76.96;101993.22;4990838;28;20042;-75
2021/11/10 04:53:48;;;;;;;33.53;15.85;;;;;;;18.17;76.85;102001.28;5000827;28;20050;-77
2021/11/10 04:56:16;;;;;;;30.75;16.15;;;;;;;18.16;76.94;101995.03;5008279;28;20050;-77
2021/11/10 04:58:45;;;;;;;29.92;15.15;;;;;;;18.16;77.08;101999.47;4992143;28;20053;-77
2021/11/10 05:01:18;;;;;;;34.63;17.25;;;;;;;18.17;76.98;102002.16;4991066;28;20049;-76
2021/11/10 05:03:46;;;;;;;39.80;16.08;;;;;;;18.21;77.46;102003.06;5007307;28;20041;-76
2021/11/10 05:06:14;;;;;;;34.08;15.98;;;;;;;18.26;77.58;101998.63;5000110;28;20099;-77
2021/11/10 05:08:44;;;;;;;39.97;16.42;;;;;;;18.32;77.85;102006.66;5000460;28;20375;-76
2021/11/10 05:11:12;;;;;;;32.92;16.30;;;;;;;18.36;77.91;101995.09;4988363;28;20054;-77
2021/11/10 05:13:40;;;;;;;35.83;17.15;;;;;;;18.42;78.08;102003.16;4988425;28;20100;-77
2021/11/10 05:16:09;;;;;;;40.13;16.60;;;;;;;18.46;78.33;102004.94;4996859;28;20053;-77
2021/11/10 05:18:36;;;;;;;38.40;17.55;;;;;;;18.49;78.47;102004.94;5007054;28;20556;-77
2021/11/10 05:21:05;;;;;;;34.15;16.98;;;;;;;18.51;79.03;102005.81;5006070;28;20120;-77
2021/11/10 05:23:33;;;;;;;32.40;16.23;;;;;;;18.56;78.82;102013.91;5000727;28;20042;-77
2021/11/10 05:26:02;;;;;;;36.22;16.23;;;;;;;18.61;78.99;102021.06;5009127;28;20041;-76
2021/11/10 05:28:31;;;;;;;36.90;17.33;;;;;;;18.65;78.82;102022.84;4995321;28;20070;-76
2021/11/10 05:30:59;;;;;;;33.78;14.85;;;;;;;18.69;78.62;102027.34;5005900;28;20037;-77
2021/11/10 05:33:26;;;;;;;32.80;15.18;;;;;;;18.72;78.67;102026.44;5011228;28;20447;-77
2021/11/10 05:35:54;;;;;;;32.33;15.85;;;;;;;18.80;78.48;102030.03;5010651;28;20041;-76
2021/11/10 05:38:22;;;;;;;35.40;16.60;;;;;;;18.84;77.96;102028.25;5003250;28;20609;-76
2021/11/10 05:40:50;;;;;;;29.42;16.02;;;;;;;18.90;77.75;102029.19;4998509;28;20054;-75
2021/11/10 05:43:20;;;;;;;31.33;16.63;;;;;;;18.96;77.57;102029.19;4996448;28;20120;-75
2021/11/10 05:45:48;;;;;;;35.25;16.25;;;;;;;18.98;77.63;102030.06;5011779;28;20514;-76
2021/11/10 05:48:17;;;;;;;35.22;16.40;;;;;;;19.03;78.09;102036.28;5011038;28;20096;-75
2021/11/10 05:50:47;;;;;;;36.75;18.35;;;;;;;19.08;78.01;102034.53;5002199;28;21573;-76
2021/11/10 05:53:16;;;;;;;35.20;16.92;;;;;;;19.11;78.30;102045.25;4997103;28;20566;-75
2021/11/10 05:55:44;;;;;;;25.77;13.30;;;;;;;19.14;78.35;102040.78;5004877;28;20061;-76
2021/11/10 05:58:12;;;;;;;42.00;18.35;;;;;;;19.17;78.09;102047.03;4971527;28;20099;-76
2021/11/10 06:00:42;;;;;;;35.58;16.63;;;;;;;19.21;78.20;102059.53;4972002;28;20043;-75
2021/11/10 06:03:10;;;;;;;33.45;18.38;;;;;;;19.22;77.88;102063.13;4964792;28;20388;-75
2021/11/10 06:05:38;;;;;;;38.00;20.10;;;;;;;19.26;77.60;102064.88;4951815;28;20046;-75
2021/11/10 06:08:05;;;;;;;36.75;18.02;;;;;;;19.30;77.54;102062.22;4960655;28;20130;-75
2021/11/10 06:10:33;;;;;;;31.33;15.55;;;;;;;19.30;77.70;102062.22;4952666;28;20047;-75
2021/11/10 06:13:01;;;;;;;33.53;17.77;;;;;;;19.35;77.25;102064.91;4955264;28;20067;-75
2021/11/10 06:15:29;;;;;;;32.88;17.83;;;;;;;19.38;77.01;102062.22;4971542;28;20042;-75
2021/11/10 06:17:58;;;;;;;33.70;18.17;;;;;;;19.40;76.79;102071.16;4972304;28;20046;-75
2021/11/10 06:20:26;;;;;;;37.88;18.42;;;;;;;19.41;76.43;102071.16;4972041;28;20070;-75
2021/11/10 06:22:53;;;;;;;34.72;17.75;;;;;;;19.42;76.46;102081.00;4970394;28;20516;-75
2021/11/10 06:25:22;;;;;;;33.80;17.65;;;;;;;19.44;76.03;102075.59;4968975;28;20062;-75
2021/11/10 06:27:50;;;;;;;33.78;18.23;;;;;;;19.42;75.84;102078.31;4970011;28;20169;-75
2021/11/10 06:30:19;;;;;;;32.88;18.48;;;;;;;19.50;75.74;102081.00;4956998;28;20039;-75
2021/11/10 06:32:47;;;;;;;32.50;18.55;;;;;;;19.52;75.34;102079.22;4971443;28;20031;-75
2021/11/10 06:35:16;;;;;;;30.90;16.63;;;;;;;19.57;75.20;102082.78;4966073;28;20447;-75
2021/11/10 06:37:44;;;;;;;32.30;17.92;;;;;;;19.61;75.08;102081.00;4959333;28;20051;-75
2021/11/10 06:40:12;;;;;;;35.03;15.98;;;;;;;19.65;74.85;102086.38;4958312;28;20499;-75
2021/11/10 06:42:40;;;;;;;33.05;17.17;;;;;;;19.69;74.75;102082.78;4954969;28;20045;-76
2021/11/10 06:45:09;;;;;;;34.42;16.88;;;;;;;19.74;74.42;102083.69;4953879;28;21764;-75
2021/11/10 06:47:36;;;;;;;35.70;18.15;;;;;;;19.81;74.53;102084.56;4968152;28;20117;-76
2021/11/10 06:50:05;;;;;;;33.30;18.08;;;;;;;19.87;74.83;102080.09;4953053;28;20083;-77
2021/11/10 06:52:36;;;;;;;36.50;17.75;;;;;;;19.94;74.43;102080.09;4954756;28;20039;-75
2021/11/10 06:55:05;;;;;;;39.00;19.92;;;;;;;19.95;74.38;102077.41;4954376;28;20042;-76
2021/11/10 06:57:32;;;;;;;35.50;20.00;;;;;;;19.93;74.61;102071.16;4978572;28;20152;-75
2021/11/10 07:00:00;;;;;;;35.53;17.95;;;;;;;19.97;74.56;102083.63;4984420;28;20160;-77
2021/11/10 07:02:28;;;;;;;38.53;19.38;;;;;;;20.05;74.65;102079.16;4984017;28;20714;-75
2021/11/10 07:04:56;;;;;;;44.92;21.20;;;;;;;20.09;74.56;102077.34;4988997;28;20042;-74
2021/11/10 07:07:23;;;;;;;38.75;20.40;;;;;;;20.18;74.22;102083.59;4988684;28;20042;-76
2021/11/10 07:09:53;;;;;;;40.55;18.75;;;;;;;20.26;74.18;102068.38;4988268;28;20121;-77
2021/11/10 07:12:20;;;;;;;32.05;16.52;;;;;;;20.26;72.96;102081.78;4983322;28;20510;-76
2021/11/10 07:14:48;;;;;;;27.63;13.10;;;;;;;20.30;71.68;102080.88;4970092;28;20100;-75
2021/11/10 07:17:16;;;;;;;29.60;13.25;;;;;;;20.38;70.42;102069.25;4988059;28;20093;-75
2021/11/10 07:19:44;;;;;;;28.27;11.65;;;;;;;20.42;69.35;102082.66;4988868;28;20046;-74
2021/11/10 07:22:12;;;;;;;29.27;10.55;;;;;;;20.50;69.09;102088.88;4988933;28;20490;-74
2021/11/10 07:24:40;;;;;;;23.13;9.82;;;;;;;20.59;68.30;102088.84;4979004;28;20054;-73
2021/11/10 07:27:10;;;;;;;21.98;8.70;;;;;;;20.61;67.82;102095.09;5001955;28;20182;-74
2021/11/10 07:29:38;;;;;;;19.27;8.07;;;;;;;20.47;67.23;102096.97;4985805;28;20038;-73
2021/11/10 07:32:07;;;;;;;23.50;7.95;;;;;;;20.40;66.75;102092.50;4984875;28;20526;-75
2021/11/10 07:34:35;;;;;;;19.02;7.10;;;;;;;20.53;66.20;102083.53;4984052;28;20045;-73
2021/11/10 07:37:03;;;;;;;16.48;6.05;;;;;;;20.65;65.79;102086.16;4980736;28;20038;-74
2021/11/10 07:39:32;;;;;;;16.65;6.53;;;;;;;20.83;66.10;102084.25;4980577;28;20129;-74
2021/11/10 07:41:59;;;;;;;14.80;5.68;;;;;;;21.02;65.54;102080.56;4987534;28;20765;-74
2021/11/10 07:44:29;;;;;;;16.48;6.35;;;;;;;21.20;64.88;102074.22;4987023;28;20054;-73
2021/11/10 07:47:06;;;;;;;22.58;7.30;;;;;;;21.37;65.13;102083.03;4987789;28;20461;-72
2021/11/10 07:49:34;;;;;;;17.65;6.78;;;;;;;21.30;66.36;102084.00;4998417;28;20502;-75
2021/11/10 07:52:02;;;;;;;21.70;7.65;;;;;;;21.28;67.11;102081.31;4988824;28;20572;-79
2021/11/10 07:54:29;;;;;;;19.90;7.30;;;;;;;21.11;68.13;102075.13;4987592;28;20125;-76
2021/11/10 07:56:57;;;;;;;22.48;7.00;;;;;;;20.94;68.37;102087.75;4993680;28;20038;-76
2021/11/10 07:59:25;;;;;;;26.40;8.35;;;;;;;20.91;69.22;102083.31;5003680;28;20133;-75
2021/11/10 08:01:55;;;;;;;25.20;8.80;;;;;;;20.83;69.15;102087.84;4985222;28;20049;-75
2021/11/10 08:04:22;;;;;;;18.67;7.50;;;;;;;20.82;69.63;102087.84;5004096;28;20096;-73
2021/11/10 08:06:50;;;;;;;25.40;8.90;;;;;;;20.79;69.97;102078.03;4988146;28;20034;-75
2021/11/10 08:09:18;;;;;;;18.50;7.35;;;;;;;20.77;70.17;102079.81;4986956;28;20050;-75
2021/11/10 08:11:45;;;;;;;19.27;8.00;;;;;;;20.84;70.31;102084.25;4983237;28;20132;-75
2021/11/10 08:14:13;;;;;;;22.98;8.35;;;;;;;20.84;70.26;102081.56;5004485;28;20052;-75
2021/11/10 08:16:40;;;;;;;20.95;7.72;;;;;;;20.85;70.21;102093.19;5006208;28;20034;-75
2021/11/10 08:19:10;;;;;;;17.73;7.43;;;;;;;20.93;69.96;102083.31;5005917;28;20141;-75
2021/11/10 08:21:40;;;;;;;17.23;7.47;;;;;;;21.00;69.64;102087.75;5006574;28;20569;-75
2021/11/10 08:24:08;;;;;;;21.13;7.68;;;;;;;21.09;69.41;102087.69;4982664;28;20494;-76
2021/11/10 08:26:35;;;;;;;23.48;7.53;;;;;;;21.26;69.26;102075.06;5004652;28;20049;-76
2021/11/10 08:29:03;;;;;;;18.75;7.35;;;;;;;21.30;68.82;102084.88;5003444;28;20058;-75
2021/11/10 08:31:31;;;;;;;24.20;7.18;;;;;;;21.35;67.73;102093.78;5005557;28;20112;-74
2021/11/10 08:33:59;;;;;;;18.90;6.43;;;;;;;21.32;67.57;102079.50;5004882;28;20042;-74
2021/11/10 08:36:29;;;;;;;20.52;6.90;;;;;;;21.25;67.52;102094.78;4994079;28;20115;-75
2021/11/10 08:38:56;;;;;;;15.90;6.55;;;;;;;21.20;67.79;102093.91;4988359;28;20042;-75
2021/11/10 08:41:25;;;;;;;23.85;7.15;;;;;;;21.18;68.13;102087.66;4977523;28;20070;-75
2021/11/10 08:43:53;;;;;;;24.25;6.72;;;;;;;21.18;68.25;102087.66;4988859;28;20069;-76
2021/11/10 08:46:22;;;;;;;18.95;6.85;;;;;;;21.19;67.71;102085.88;4989621;28;20053;-76
2021/11/10 08:48:50;;;;;;;18.50;6.50;;;;;;;21.18;67.50;102076.91;4989859;28;20046;-75
2021/11/10 08:51:19;;;;;;;16.23;6.45;;;;;;;21.26;67.17;102075.06;4988670;28;20496;-75
2021/11/10 08:53:49;;;;;;;20.65;6.57;;;;;;;21.32;65.89;102075.03;4990611;28;20092;-75
2021/11/10 08:56:17;;;;;;;18.02;6.45;;;;;;;21.38;65.76;102092.91;5006145;28;20045;-75
2021/11/10 08:58:45;;;;;;;14.23;5.55;;;;;;;21.47;65.63;102099.06;4988835;28;20050;-76
2021/11/10 09:01:17;;;;;;;13.13;4.80;;;;;;;21.54;64.41;102090.94;5012045;28;20046;-75
2021/11/10 09:03:45;;;;;;;13.38;4.88;;;;;;;21.65;64.17;102083.72;5010884;28;20038;-75
2021/11/10 09:06:13;;;;;;;14.18;4.40;;;;;;;21.87;63.33;102075.41;4992703;28;20082;-75
2021/11/10 09:08:41;;;;;;;11.65;4.50;;;;;;;22.05;62.70;102082.47;5011137;28;20037;-75
2021/11/10 09:11:10;;;;;;;9.15;3.90;;;;;;;22.03;62.20;102078.88;5017171;28;20100;-75
2021/11/10 09:13:37;;;;;;;15.00;3.08;;;;;;;21.98;61.82;102078.06;4993195;28;20397;-75
2021/11/10 09:16:05;;;;;;;15.20;3.83;;;;;;;21.90;61.14;102096.03;5009743;28;20116;-75
2021/11/10 09:18:34;;;;;;;13.00;3.30;;;;;;;21.75;60.60;102091.66;4993286;28;20049;-75
2021/11/10 09:21:02;;;;;;;12.88;3.50;;;;;;;21.66;60.60;102085.50;4992099;28;20046;-75
2021/11/10 09:23:29;;;;;;;16.25;3.88;;;;;;;21.57;61.52;102096.31;4992954;28;20099;-75
2021/11/10 09:25:57;;;;;;;20.15;4.18;;;;;;;21.57;62.13;102096.31;4992066;28;20172;-76
2021/11/10 09:28:26;;;;;;;18.27;3.58;;;;;;;21.63;62.40;102101.63;4987120;28;20042;-75
2021/11/10 09:30:55;;;;;;;14.43;3.42;;;;;;;21.66;62.28;102098.94;4992100;28;20042;-75
2021/11/10 09:33:24;;;;;;;15.85;3.67;;;;;;;21.83;62.30;102097.88;5010307;28;20048;-75
2021/11/10 09:35:53;;;;;;;15.27;3.30;;;;;;;22.04;61.30;102086.06;5009971;28;20445;-76
2021/11/10 09:38:22;;;;;;;17.20;3.60;;;;;;;22.16;60.83;102082.34;5010586;28;20056;-75
2021/11/10 09:40:53;;;;;;;11.55;3.20;;;;;;;22.19;60.38;102068.81;4992003;28;20052;-76
2021/11/10 09:43:21;;;;;;;13.05;3.80;;;;;;;;;;5010007;28;20056;-75
2021/11/10 09:45:50;;;;;;;12.70;3.65;;;;;;;22.25;60.16;102077.72;5010022;28;20062;-75
2021/11/10 09:48:18;;;;;;;12.05;3.47;;;;;;;22.29;60.12;102075.00;5009312;28;20062;-75
2021/11/10 09:50:48;;;;;;;14.07;3.90;;;;;;;22.26;59.73;102084.00;4993016;28;21172;-75
2021/11/10 09:53:16;;;;;;;10.45;2.92;;;;;;;22.18;59.75;102059.00;5009459;28;20050;-74
2021/11/10 09:55:45;;;;;;;15.57;4.10;;;;;;;21.98;58.94;102072.66;4992322;28;20092;-74
2021/11/10 09:58:13;;;;;;;16.60;4.20;;;;;;;21.86;59.35;102067.34;5009086;28;20056;-75
2021/11/10 10:00:44;;;;;;;15.55;4.05;;;;;;;21.88;59.67;102057.47;5009568;28;20839;-74
2021/11/10 10:03:14;;;;;;;13.40;3.53;;;;;;;21.82;59.56;102073.69;5000989;28;20053;-75
2021/11/10 10:05:43;;;;;;;15.73;3.47;;;;;;;21.80;59.41;102049.50;5009520;28;20034;-75
2021/11/10 10:08:11;;;;;;;16.08;3.47;;;;;;;21.72;59.18;102050.50;5008665;28;20131;-75
2021/11/10 10:10:40;;;;;;;10.95;3.60;;;;;;;21.65;59.58;102067.59;5006165;28;20113;-75
2021/11/10 10:13:08;;;;;;;13.85;3.60;;;;;;;21.64;59.88;102057.72;4989757;28;20034;-75
2021/11/10 10:15:37;;;;;;;12.73;3.67;;;;;;;21.67;59.91;102055.91;4977813;28;20034;-75
2021/11/10 10:18:16;;;;;;;17.60;4.13;;;;;;;21.67;59.86;102049.63;5005692;28;20536;-74
2021/11/10 10:20:44;;;;;;;15.57;3.85;;;;;;;21.66;60.54;102055.94;5005333;28;20042;-74
2021/11/10 10:23:16;;;;;;;14.40;3.58;;;;;;;21.80;59.88;102059.34;5003050;28;20043;-76
2021/11/10 10:25:46;;;;;;;11.77;3.25;;;;;;;21.81;59.38;102045.00;5007684;28;20042;-75
2021/11/10 10:28:16;;;;;;;15.98;3.55;;;;;;;21.72;59.43;102026.31;4989481;28;20101;-74
2021/11/10 10:30:48;;;;;;;15.18;3.20;;;;;;;21.77;59.05;102062.09;5007942;28;20505;-74
2021/11/10 10:33:19;;;;;;;14.88;3.65;;;;;;;21.75;58.56;102059.41;5004513;28;20196;-74
2021/11/10 10:35:49;;;;;;;15.77;3.80;;;;;;;21.70;58.27;102042.44;5008104;28;20046;-75
2021/11/10 10:38:18;;;;;;;15.35;3.90;;;;;;;21.71;58.38;102040.66;5007777;28;21178;-75
2021/11/10 10:40:48;;;;;;;12.48;4.32;;;;;;;21.68;58.13;102046.94;4991382;28;20050;-74
2021/11/10 10:43:17;;;;;;;9.52;2.40;;;;;;;21.59;57.52;102059.56;5021468;28;20060;-74
2021/11/10 10:45:48;;;;;;;8.45;2.40;;;;;;;21.59;57.61;102036.28;4985239;28;20046;-74
2021/11/10 10:53:46;;;;;;;11.05;2.85;;;;;;;21.97;57.50;102041.31;4965013;28;20034;-75
2021/11/10 10:56:20;;;;;;;8.43;2.90;;;;;;;21.95;57.03;102039.47;4967362;28;20122;-77
2021/11/10 10:58:47;;;;;;;;;;;;;;;21.79;57.52;102041.47;4972686;28;20138;-77
2021/11/10 11:01:34;;;;;;;17.63;3.10;;;;;;;21.74;57.84;102060.31;4953858;28;19949;-77
2021/11/10 11:04:13;;;;;;;16.75;2.70;;;;;;;21.61;57.89;102047.88;4973120;28;20050;-76
2021/11/10 11:06:44;;;;;;;9.75;2.95;;;;;;;21.62;57.95;102041.59;4968220;28;20121;-76
2021/11/10 11:09:20;;;;;;;14.45;2.53;;;;;;;21.60;57.06;102051.47;4953529;28;20097;-75
2021/11/10 11:11:58;;;;;;;14.88;2.88;;;;;;;21.57;56.81;102053.31;4971168;28;20046;-74
2021/11/10 11:14:39;;;;;;;11.40;2.45;;;;;;;21.56;56.63;102041.66;4970909;28;20130;-76
2021/11/10 11:17:21;;;;;;;18.05;3.00;;;;;;;21.57;56.86;102031.81;4962433;28;20054;-76
2021/11/10 11:19:52;;;;;;;11.77;2.28;;;;;;;21.64;55.99;102053.25;4967806;28;20047;-76
2021/11/10 11:22:20;;;;;;;11.70;2.45;;;;;;;21.74;55.12;102054.94;4962701;28;20546;-77
2021/11/10 11:24:49;;;;;;;15.85;2.70;;;;;;;21.84;54.75;102036.94;4970551;28;20742;-78
2021/11/10 11:27:21;;;;;;;12.52;2.50;;;;;;;21.88;54.11;102044.94;4974220;28;20093;-78
2021/11/10 11:30:12;;;;;;;10.98;2.20;;;;;;;21.93;54.08;102043.97;4969674;28;20399;-77